Oxford, Indiana
Current Conditions -  °F | °C
As of 6:54 PM on Saturday 20 Dec 2014 (Local Time) from KLAF Reporting Station
Overcast Overcast  
Wind Chill: -4°   Ceiling: 6000
Heat Index: -1°   Visibility: 10mi
Dew Point: -4°   Wind: 5mph
Humidity: 82%   Direction: 120°ESE
Pressure: 30.29"   Gusts: NA
Location:  40.52°N, 87.25°W
Report Text: KLAF 202354Z 12004KT 10SM OVC060 M01/M04 A3029 RMK AO2 SLP263 T10111039 10006 21011 51007
Loading
Personal Weather Stations






























Interactive Weather Map New forecast layout! Learn more

10-Day Weather Forecast

Advertisements
Track Severe Weather on mobile